sensor_id;sensor_type;location;lat;lon;timestamp;P1;durP1;ratioP1;P2;durP2;ratioP2
34573;SDS011;20809;49.594;8.734;2022-08-05T00:02:24;2.28;;;1.75;;
34573;SDS011;20809;49.594;8.734;2022-08-05T00:05:24;2.53;;;2.33;;
34573;SDS011;20809;49.594;8.734;2022-08-05T00:08:25;3.17;;;2.75;;
34573;SDS011;20809;49.594;8.734;2022-08-05T00:11:26;2.20;;;1.75;;
34573;SDS011;20809;49.594;8.734;2022-08-05T00:14:27;6.18;;;1.92;;
34573;SDS011;20809;49.594;8.734;2022-08-05T00:17:28;7.18;;;2.28;;
34573;SDS011;20809;49.594;8.734;2022-08-05T00:20:29;7.30;;;2.53;;
34573;SDS011;20809;49.594;8.734;2022-08-05T00:23:30;4.22;;;1.80;;
34573;SDS011;20809;49.594;8.734;2022-08-05T00:26:30;5.63;;;2.35;;
34573;SDS011;20809;49.594;8.734;2022-08-05T00:29:31;8.07;;;1.98;;
34573;SDS011;20809;49.594;8.734;2022-08-05T00:32:32;7.88;;;3.00;;
34573;SDS011;20809;49.594;8.734;2022-08-05T00:35:33;4.28;;;3.25;;
34573;SDS011;20809;49.594;8.734;2022-08-05T00:38:33;6.07;;;2.80;;
34573;SDS011;20809;49.594;8.734;2022-08-05T00:41:34;5.70;;;2.50;;
34573;SDS011;20809;49.594;8.734;2022-08-05T00:44:35;10.70;;;3.45;;
34573;SDS011;20809;49.594;8.734;2022-08-05T00:47:36;12.98;;;3.38;;
34573;SDS011;20809;49.594;8.734;2022-08-05T00:50:38;11.95;;;4.30;;
34573;SDS011;20809;49.594;8.734;2022-08-05T00:53:40;6.22;;;3.55;;
34573;SDS011;20809;49.594;8.734;2022-08-05T00:59:09;7.35;;;3.55;;
34573;SDS011;20809;49.594;8.734;2022-08-05T01:02:10;4.13;;;2.78;;
34573;SDS011;20809;49.594;8.734;2022-08-05T01:05:11;12.88;;;3.88;;
34573;SDS011;20809;49.594;8.734;2022-08-05T01:08:12;13.75;;;3.38;;
34573;SDS011;20809;49.594;8.734;2022-08-05T01:11:14;4.90;;;3.13;;
34573;SDS011;20809;49.594;8.734;2022-08-05T01:14:24;5.05;;;3.38;;
34573;SDS011;20809;49.594;8.734;2022-08-05T01:17:39;12.10;;;4.10;;
34573;SDS011;20809;49.594;8.734;2022-08-05T01:31:03;7.50;;;3.22;;
34573;SDS011;20809;49.594;8.734;2022-08-05T01:34:21;3.85;;;3.22;;
34573;SDS011;20809;49.594;8.734;2022-08-05T01:37:31;7.35;;;3.47;;
34573;SDS011;20809;49.594;8.734;2022-08-05T01:40:50;7.53;;;3.30;;
34573;SDS011;20809;49.594;8.734;2022-08-05T01:43:53;6.78;;;3.60;;
34573;SDS011;20809;49.594;8.734;2022-08-05T01:46:55;5.78;;;3.60;;
34573;SDS011;20809;49.594;8.734;2022-08-05T01:49:57;7.05;;;3.13;;
34573;SDS011;20809;49.594;8.734;2022-08-05T01:53:02;6.43;;;3.70;;
34573;SDS011;20809;49.594;8.734;2022-08-05T01:56:06;7.65;;;3.47;;
34573;SDS011;20809;49.594;8.734;2022-08-05T01:59:12;6.28;;;3.83;;
34573;SDS011;20809;49.594;8.734;2022-08-05T02:02:16;5.55;;;3.42;;
34573;SDS011;20809;49.594;8.734;2022-08-05T02:05:21;4.38;;;3.03;;
34573;SDS011;20809;49.594;8.734;2022-08-05T02:08:24;5.82;;;3.30;;
34573;SDS011;20809;49.594;8.734;2022-08-05T02:11:25;3.65;;;2.78;;
34573;SDS011;20809;49.594;8.734;2022-08-05T02:14:42;3.42;;;2.53;;
34573;SDS011;20809;49.594;8.734;2022-08-05T02:17:48;3.22;;;2.92;;
34573;SDS011;20809;49.594;8.734;2022-08-05T02:24:17;3.70;;;2.90;;
34573;SDS011;20809;49.594;8.734;2022-08-05T02:27:19;3.38;;;2.33;;
34573;SDS011;20809;49.594;8.734;2022-08-05T02:30:22;5.65;;;2.65;;
34573;SDS011;20809;49.594;8.734;2022-08-05T02:33:25;4.30;;;2.28;;
34573;SDS011;20809;49.594;8.734;2022-08-05T02:36:26;4.43;;;2.63;;
34573;SDS011;20809;49.594;8.734;2022-08-05T02:39:28;2.78;;;2.47;;
34573;SDS011;20809;49.594;8.734;2022-08-05T02:42:34;6.90;;;3.78;;
34573;SDS011;20809;49.594;8.734;2022-08-05T02:45:37;3.53;;;3.00;;
34573;SDS011;20809;49.594;8.734;2022-08-05T02:48:40;5.55;;;3.53;;
34573;SDS011;20809;49.594;8.734;2022-08-05T02:51:42;4.40;;;2.88;;
34573;SDS011;20809;49.594;8.734;2022-08-05T02:54:43;3.92;;;2.72;;
34573;SDS011;20809;49.594;8.734;2022-08-05T02:57:45;6.32;;;2.80;;
34573;SDS011;20809;49.594;8.734;2022-08-05T03:00:47;6.13;;;3.28;;
34573;SDS011;20809;49.594;8.734;2022-08-05T03:03:49;4.80;;;3.05;;
34573;SDS011;20809;49.594;8.734;2022-08-05T03:06:54;5.57;;;2.72;;
34573;SDS011;20809;49.594;8.734;2022-08-05T03:09:56;5.05;;;2.63;;
34573;SDS011;20809;49.594;8.734;2022-08-05T03:12:57;6.18;;;2.95;;
34573;SDS011;20809;49.594;8.734;2022-08-05T03:15:58;5.00;;;2.90;;
34573;SDS011;20809;49.594;8.734;2022-08-05T03:18:59;8.13;;;3.25;;
34573;SDS011;20809;49.594;8.734;2022-08-05T03:22:00;4.32;;;2.92;;
34573;SDS011;20809;49.594;8.734;2022-08-05T03:25:01;3.30;;;2.45;;
34573;SDS011;20809;49.594;8.734;2022-08-05T03:31:04;7.85;;;2.80;;
34573;SDS011;20809;49.594;8.734;2022-08-05T03:34:05;4.13;;;2.60;;
34573;SDS011;20809;49.594;8.734;2022-08-05T03:37:06;3.72;;;2.83;;
34573;SDS011;20809;49.594;8.734;2022-08-05T03:40:07;3.33;;;2.80;;
34573;SDS011;20809;49.594;8.734;2022-08-05T03:43:08;5.57;;;2.90;;
34573;SDS011;20809;49.594;8.734;2022-08-05T03:46:09;7.53;;;3.28;;
34573;SDS011;20809;49.594;8.734;2022-08-05T03:49:10;9.77;;;3.10;;
34573;SDS011;20809;49.594;8.734;2022-08-05T03:52:11;3.85;;;2.95;;
34573;SDS011;20809;49.594;8.734;2022-08-05T03:55:21;3.67;;;2.72;;
34573;SDS011;20809;49.594;8.734;2022-08-05T03:58:29;7.97;;;2.93;;
34573;SDS011;20809;49.594;8.734;2022-08-05T04:01:32;3.50;;;2.53;;
34573;SDS011;20809;49.594;8.734;2022-08-05T04:04:36;4.85;;;2.55;;
34573;SDS011;20809;49.594;8.734;2022-08-05T04:07:38;2.40;;;2.20;;
34573;SDS011;20809;49.594;8.734;2022-08-05T04:10:41;4.40;;;2.58;;
34573;SDS011;20809;49.594;8.734;2022-08-05T04:13:44;4.43;;;2.30;;
34573;SDS011;20809;49.594;8.734;2022-08-05T04:16:45;3.03;;;2.80;;
34573;SDS011;20809;49.594;8.734;2022-08-05T04:19:46;2.30;;;2.08;;
34573;SDS011;20809;49.594;8.734;2022-08-05T04:22:48;4.10;;;2.35;;
34573;SDS011;20809;49.594;8.734;2022-08-05T04:25:49;4.20;;;2.63;;
34573;SDS011;20809;49.594;8.734;2022-08-05T04:28:50;4.93;;;3.97;;
34573;SDS011;20809;49.594;8.734;2022-08-05T04:31:50;3.97;;;2.47;;
34573;SDS011;20809;49.594;8.734;2022-08-05T04:34:51;2.47;;;2.30;;
34573;SDS011;20809;49.594;8.734;2022-08-05T04:37:52;2.78;;;2.28;;
34573;SDS011;20809;49.594;8.734;2022-08-05T04:40:52;1.88;;;1.77;;
34573;SDS011;20809;49.594;8.734;2022-08-05T04:43:53;2.92;;;1.95;;
34573;SDS011;20809;49.594;8.734;2022-08-05T04:46:54;3.55;;;2.00;;
34573;SDS011;20809;49.594;8.734;2022-08-05T04:49:55;3.25;;;1.95;;
34573;SDS011;20809;49.594;8.734;2022-08-05T04:52:55;2.60;;;1.70;;
34573;SDS011;20809;49.594;8.734;2022-08-05T04:55:56;3.08;;;2.70;;
34573;SDS011;20809;49.594;8.734;2022-08-05T04:58:57;3.25;;;2.05;;
34573;SDS011;20809;49.594;8.734;2022-08-05T05:01:57;2.45;;;2.25;;
34573;SDS011;20809;49.594;8.734;2022-08-05T05:04:58;3.42;;;2.53;;
34573;SDS011;20809;49.594;8.734;2022-08-05T05:08:00;3.30;;;2.35;;
34573;SDS011;20809;49.594;8.734;2022-08-05T05:11:03;2.53;;;2.30;;
34573;SDS011;20809;49.594;8.734;2022-08-05T05:17:05;2.63;;;2.20;;
34573;SDS011;20809;49.594;8.734;2022-08-05T05:20:06;4.30;;;2.38;;
34573;SDS011;20809;49.594;8.734;2022-08-05T05:23:08;2.20;;;1.95;;
34573;SDS011;20809;49.594;8.734;2022-08-05T05:26:08;5.15;;;3.05;;
34573;SDS011;20809;49.594;8.734;2022-08-05T05:29:09;3.22;;;2.30;;
34573;SDS011;20809;49.594;8.734;2022-08-05T05:32:10;3.90;;;2.85;;
34573;SDS011;20809;49.594;8.734;2022-08-05T05:35:11;2.80;;;2.03;;
34573;SDS011;20809;49.594;8.734;2022-08-05T05:38:13;3.35;;;2.10;;
34573;SDS011;20809;49.594;8.734;2022-08-05T05:41:14;3.90;;;2.33;;
34573;SDS011;20809;49.594;8.734;2022-08-05T05:44:15;3.58;;;3.10;;
34573;SDS011;20809;49.594;8.734;2022-08-05T05:47:16;5.28;;;2.85;;
34573;SDS011;20809;49.594;8.734;2022-08-05T05:50:17;3.42;;;2.17;;
34573;SDS011;20809;49.594;8.734;2022-08-05T05:53:18;4.90;;;2.45;;
34573;SDS011;20809;49.594;8.734;2022-08-05T05:56:19;2.60;;;2.22;;
34573;SDS011;20809;49.594;8.734;2022-08-05T05:59:20;4.50;;;2.20;;
34573;SDS011;20809;49.594;8.734;2022-08-05T06:02:21;3.95;;;2.83;;
34573;SDS011;20809;49.594;8.734;2022-08-05T06:08:23;3.10;;;2.20;;
34573;SDS011;20809;49.594;8.734;2022-08-05T06:14:24;2.83;;;2.27;;
34573;SDS011;20809;49.594;8.734;2022-08-05T06:20:26;3.70;;;2.20;;
34573;SDS011;20809;49.594;8.734;2022-08-05T06:26:27;5.83;;;2.17;;
34573;SDS011;20809;49.594;8.734;2022-08-05T06:29:28;2.83;;;1.85;;
34573;SDS011;20809;49.594;8.734;2022-08-05T06:32:28;4.20;;;1.83;;
34573;SDS011;20809;49.594;8.734;2022-08-05T06:35:29;2.70;;;2.30;;
34573;SDS011;20809;49.594;8.734;2022-08-05T06:38:30;2.08;;;1.98;;
34573;SDS011;20809;49.594;8.734;2022-08-05T06:41:31;2.15;;;1.95;;
34573;SDS011;20809;49.594;8.734;2022-08-05T06:47:32;3.10;;;2.00;;
34573;SDS011;20809;49.594;8.734;2022-08-05T06:53:34;2.77;;;2.57;;
34573;SDS011;20809;49.594;8.734;2022-08-05T06:56:35;3.40;;;2.42;;
34573;SDS011;20809;49.594;8.734;2022-08-05T06:59:36;2.67;;;2.38;;
34573;SDS011;20809;49.594;8.734;2022-08-05T07:05:44;4.28;;;1.95;;
34573;SDS011;20809;49.594;8.734;2022-08-05T07:08:45;3.05;;;2.40;;
34573;SDS011;20809;49.594;8.734;2022-08-05T07:11:46;3.13;;;2.00;;
34573;SDS011;20809;49.594;8.734;2022-08-05T07:14:47;2.38;;;1.85;;
34573;SDS011;20809;49.594;8.734;2022-08-05T07:18:06;2.28;;;2.08;;
34573;SDS011;20809;49.594;8.734;2022-08-05T07:21:06;3.35;;;2.17;;
34573;SDS011;20809;49.594;8.734;2022-08-05T07:24:07;2.22;;;1.98;;
34573;SDS011;20809;49.594;8.734;2022-08-05T07:27:08;2.42;;;2.20;;
34573;SDS011;20809;49.594;8.734;2022-08-05T07:30:09;2.83;;;1.90;;
34573;SDS011;20809;49.594;8.734;2022-08-05T07:33:10;2.42;;;1.98;;
34573;SDS011;20809;49.594;8.734;2022-08-05T07:36:11;2.63;;;2.22;;
34573;SDS011;20809;49.594;8.734;2022-08-05T07:39:13;2.08;;;1.98;;
34573;SDS011;20809;49.594;8.734;2022-08-05T07:42:14;2.97;;;2.38;;
34573;SDS011;20809;49.594;8.734;2022-08-05T07:45:15;3.60;;;2.40;;
34573;SDS011;20809;49.594;8.734;2022-08-05T07:48:16;5.15;;;2.63;;
34573;SDS011;20809;49.594;8.734;2022-08-05T07:51:16;2.42;;;2.13;;
34573;SDS011;20809;49.594;8.734;2022-08-05T07:54:17;2.30;;;2.10;;
34573;SDS011;20809;49.594;8.734;2022-08-05T07:57:19;2.67;;;2.08;;
34573;SDS011;20809;49.594;8.734;2022-08-05T08:00:20;3.92;;;1.90;;
34573;SDS011;20809;49.594;8.734;2022-08-05T08:03:21;4.95;;;2.15;;
34573;SDS011;20809;49.594;8.734;2022-08-05T08:06:21;2.95;;;1.98;;
34573;SDS011;20809;49.594;8.734;2022-08-05T08:09:22;2.47;;;2.03;;
34573;SDS011;20809;49.594;8.734;2022-08-05T08:12:23;4.15;;;2.53;;
34573;SDS011;20809;49.594;8.734;2022-08-05T08:15:24;2.92;;;1.90;;
34573;SDS011;20809;49.594;8.734;2022-08-05T08:18:25;2.28;;;2.10;;
34573;SDS011;20809;49.594;8.734;2022-08-05T08:21:25;2.85;;;1.90;;
34573;SDS011;20809;49.594;8.734;2022-08-05T08:24:26;2.50;;;2.30;;
34573;SDS011;20809;49.594;8.734;2022-08-05T08:27:27;2.45;;;2.20;;
34573;SDS011;20809;49.594;8.734;2022-08-05T08:30:29;1.95;;;1.80;;
34573;SDS011;20809;49.594;8.734;2022-08-05T08:33:30;2.05;;;1.73;;
34573;SDS011;20809;49.594;8.734;2022-08-05T08:36:31;2.05;;;1.70;;
34573;SDS011;20809;49.594;8.734;2022-08-05T08:39:32;4.05;;;1.90;;
34573;SDS011;20809;49.594;8.734;2022-08-05T08:42:33;3.20;;;1.92;;
34573;SDS011;20809;49.594;8.734;2022-08-05T08:45:35;2.92;;;1.90;;
34573;SDS011;20809;49.594;8.734;2022-08-05T08:48:36;2.55;;;1.67;;
34573;SDS011;20809;49.594;8.734;2022-08-05T08:51:41;4.75;;;2.05;;
34573;SDS011;20809;49.594;8.734;2022-08-05T08:54:52;1.60;;;1.50;;
34573;SDS011;20809;49.594;8.734;2022-08-05T08:57:53;2.97;;;2.35;;
34573;SDS011;20809;49.594;8.734;2022-08-05T09:03:54;1.83;;;1.70;;
34573;SDS011;20809;49.594;8.734;2022-08-05T09:06:56;3.95;;;1.90;;
34573;SDS011;20809;49.594;8.734;2022-08-05T09:12:57;5.03;;;2.00;;
34573;SDS011;20809;49.594;8.734;2022-08-05T09:15:58;1.90;;;1.77;;
34573;SDS011;20809;49.594;8.734;2022-08-05T09:19:00;1.73;;;1.63;;
34573;SDS011;20809;49.594;8.734;2022-08-05T09:25:02;3.30;;;1.80;;
34573;SDS011;20809;49.594;8.734;2022-08-05T09:28:22;3.05;;;1.80;;
34573;SDS011;20809;49.594;8.734;2022-08-05T09:31:26;3.83;;;2.50;;
34573;SDS011;20809;49.594;8.734;2022-08-05T09:37:48;2.70;;;1.90;;
34573;SDS011;20809;49.594;8.734;2022-08-05T09:40:50;1.90;;;1.70;;
34573;SDS011;20809;49.594;8.734;2022-08-05T09:43:50;2.05;;;1.85;;
34573;SDS011;20809;49.594;8.734;2022-08-05T09:46:51;1.83;;;1.73;;
34573;SDS011;20809;49.594;8.734;2022-08-05T09:50:07;1.90;;;1.77;;
34573;SDS011;20809;49.594;8.734;2022-08-05T09:53:08;1.95;;;1.85;;
34573;SDS011;20809;49.594;8.734;2022-08-05T09:56:09;1.58;;;1.48;;
34573;SDS011;20809;49.594;8.734;2022-08-05T09:59:11;4.63;;;1.60;;
34573;SDS011;20809;49.594;8.734;2022-08-05T10:02:13;1.70;;;1.60;;
34573;SDS011;20809;49.594;8.734;2022-08-05T10:05:30;1.63;;;1.52;;
34573;SDS011;20809;49.594;8.734;2022-08-05T10:08:31;2.35;;;1.80;;
34573;SDS011;20809;49.594;8.734;2022-08-05T10:11:32;1.52;;;1.45;;
34573;SDS011;20809;49.594;8.734;2022-08-05T10:14:32;2.50;;;1.83;;
34573;SDS011;20809;49.594;8.734;2022-08-05T10:17:33;1.80;;;1.70;;
34573;SDS011;20809;49.594;8.734;2022-08-05T10:21:16;1.70;;;1.60;;
34573;SDS011;20809;49.594;8.734;2022-08-05T10:24:00;1.98;;;1.50;;
34573;SDS011;20809;49.594;8.734;2022-08-05T10:27:01;2.17;;;1.80;;
34573;SDS011;20809;49.594;8.734;2022-08-05T10:30:02;2.55;;;2.00;;
34573;SDS011;20809;49.594;8.734;2022-08-05T10:33:05;1.90;;;1.80;;
34573;SDS011;20809;49.594;8.734;2022-08-05T10:36:06;1.75;;;1.65;;
34573;SDS011;20809;49.594;8.734;2022-08-05T10:39:13;2.00;;;1.73;;
34573;SDS011;20809;49.594;8.734;2022-08-05T10:42:25;2.10;;;1.88;;
34573;SDS011;20809;49.594;8.734;2022-08-05T10:45:28;2.15;;;2.05;;
34573;SDS011;20809;49.594;8.734;2022-08-05T10:48:30;1.73;;;1.63;;
34573;SDS011;20809;49.594;8.734;2022-08-05T10:51:40;2.08;;;1.98;;
34573;SDS011;20809;49.594;8.734;2022-08-05T10:55:04;1.95;;;1.85;;
34573;SDS011;20809;49.594;8.734;2022-08-05T10:58:07;2.08;;;1.95;;
34573;SDS011;20809;49.594;8.734;2022-08-05T11:01:08;2.33;;;1.88;;
34573;SDS011;20809;49.594;8.734;2022-08-05T11:07:14;2.80;;;2.58;;
34573;SDS011;20809;49.594;8.734;2022-08-05T11:10:21;4.43;;;2.50;;
34573;SDS011;20809;49.594;8.734;2022-08-05T11:13:40;1.90;;;1.80;;
34573;SDS011;20809;49.594;8.734;2022-08-05T11:16:42;2.60;;;2.10;;
34573;SDS011;20809;49.594;8.734;2022-08-05T11:19:46;2.80;;;2.30;;
34573;SDS011;20809;49.594;8.734;2022-08-05T11:22:48;2.85;;;2.65;;
34573;SDS011;20809;49.594;8.734;2022-08-05T11:26:10;3.88;;;2.33;;
34573;SDS011;20809;49.594;8.734;2022-08-05T11:29:33;3.13;;;2.40;;
34573;SDS011;20809;49.594;8.734;2022-08-05T11:32:39;4.18;;;2.42;;
34573;SDS011;20809;49.594;8.734;2022-08-05T11:35:53;2.95;;;2.72;;
34573;SDS011;20809;49.594;8.734;2022-08-05T11:38:55;4.22;;;2.60;;
34573;SDS011;20809;49.594;8.734;2022-08-05T11:41:56;3.28;;;2.60;;
34573;SDS011;20809;49.594;8.734;2022-08-05T11:45:01;2.83;;;2.40;;
34573;SDS011;20809;49.594;8.734;2022-08-05T11:48:08;2.70;;;2.50;;
34573;SDS011;20809;49.594;8.734;2022-08-05T11:51:09;2.40;;;2.22;;
34573;SDS011;20809;49.594;8.734;2022-08-05T11:54:10;2.72;;;2.53;;
34573;SDS011;20809;49.594;8.734;2022-08-05T11:57:12;4.30;;;2.28;;
34573;SDS011;20809;49.594;8.734;2022-08-05T12:00:25;2.47;;;2.28;;
34573;SDS011;20809;49.594;8.734;2022-08-05T12:03:27;2.55;;;2.35;;
34573;SDS011;20809;49.594;8.734;2022-08-05T12:06:29;2.28;;;2.08;;
34573;SDS011;20809;49.594;8.734;2022-08-05T12:09:38;2.63;;;1.77;;
34573;SDS011;20809;49.594;8.734;2022-08-05T12:12:45;4.72;;;2.70;;
34573;SDS011;20809;49.594;8.734;2022-08-05T12:15:46;3.17;;;2.97;;
34573;SDS011;20809;49.594;8.734;2022-08-05T12:18:47;3.22;;;2.90;;
34573;SDS011;20809;49.594;8.734;2022-08-05T12:21:48;2.53;;;2.33;;
34573;SDS011;20809;49.594;8.734;2022-08-05T12:24:49;2.03;;;1.92;;
34573;SDS011;20809;49.594;8.734;2022-08-05T12:27:51;6.93;;;2.90;;
34573;SDS011;20809;49.594;8.734;2022-08-05T12:30:51;2.13;;;2.03;;
34573;SDS011;20809;49.594;8.734;2022-08-05T12:33:52;3.47;;;2.20;;
34573;SDS011;20809;49.594;8.734;2022-08-05T12:36:59;2.60;;;2.40;;
34573;SDS011;20809;49.594;8.734;2022-08-05T12:40:09;1.95;;;1.85;;
34573;SDS011;20809;49.594;8.734;2022-08-05T12:43:10;2.30;;;2.20;;
34573;SDS011;20809;49.594;8.734;2022-08-05T12:46:19;2.70;;;2.50;;
34573;SDS011;20809;49.594;8.734;2022-08-05T12:49:25;2.47;;;2.28;;
34573;SDS011;20809;49.594;8.734;2022-08-05T12:52:37;2.95;;;2.75;;
34573;SDS011;20809;49.594;8.734;2022-08-05T12:55:38;2.58;;;2.35;;
34573;SDS011;20809;49.594;8.734;2022-08-05T12:58:39;2.35;;;2.25;;
34573;SDS011;20809;49.594;8.734;2022-08-05T13:01:53;3.30;;;3.10;;
34573;SDS011;20809;49.594;8.734;2022-08-05T13:04:56;2.97;;;2.78;;
34573;SDS011;20809;49.594;8.734;2022-08-05T13:07:57;2.58;;;2.38;;
34573;SDS011;20809;49.594;8.734;2022-08-05T13:11:01;2.30;;;2.20;;
34573;SDS011;20809;49.594;8.734;2022-08-05T13:14:02;2.47;;;2.28;;
34573;SDS011;20809;49.594;8.734;2022-08-05T13:20:15;2.88;;;2.15;;
34573;SDS011;20809;49.594;8.734;2022-08-05T13:23:17;3.20;;;2.22;;
34573;SDS011;20809;49.594;8.734;2022-08-05T13:26:18;2.08;;;1.98;;
34573;SDS011;20809;49.594;8.734;2022-08-05T13:29:19;2.70;;;2.50;;
34573;SDS011;20809;49.594;8.734;2022-08-05T13:32:20;2.50;;;2.30;;
34573;SDS011;20809;49.594;8.734;2022-08-05T13:35:24;2.13;;;2.03;;
34573;SDS011;20809;49.594;8.734;2022-08-05T13:38:25;2.83;;;2.33;;
34573;SDS011;20809;49.594;8.734;2022-08-05T13:41:26;2.67;;;2.20;;
34573;SDS011;20809;49.594;8.734;2022-08-05T13:44:27;2.92;;;2.50;;
34573;SDS011;20809;49.594;8.734;2022-08-05T13:47:27;1.88;;;1.77;;
34573;SDS011;20809;49.594;8.734;2022-08-05T13:50:28;2.90;;;2.63;;
34573;SDS011;20809;49.594;8.734;2022-08-05T13:53:29;2.33;;;2.13;;
34573;SDS011;20809;49.594;8.734;2022-08-05T13:56:30;3.13;;;2.25;;
34573;SDS011;20809;49.594;8.734;2022-08-05T13:59:31;3.25;;;2.50;;
34573;SDS011;20809;49.594;8.734;2022-08-05T14:02:31;3.03;;;2.78;;
34573;SDS011;20809;49.594;8.734;2022-08-05T14:05:32;2.22;;;2.10;;
34573;SDS011;20809;49.594;8.734;2022-08-05T14:08:33;2.60;;;2.40;;
34573;SDS011;20809;49.594;8.734;2022-08-05T14:11:33;2.92;;;2.03;;
34573;SDS011;20809;49.594;8.734;2022-08-05T14:14:38;2.22;;;2.08;;
34573;SDS011;20809;49.594;8.734;2022-08-05T14:17:39;2.45;;;2.25;;
34573;SDS011;20809;49.594;8.734;2022-08-05T14:20:40;2.63;;;1.85;;
34573;SDS011;20809;49.594;8.734;2022-08-05T14:23:41;3.08;;;2.72;;
34573;SDS011;20809;49.594;8.734;2022-08-05T14:26:41;2.17;;;2.05;;
34573;SDS011;20809;49.594;8.734;2022-08-05T14:29:42;4.22;;;2.30;;
34573;SDS011;20809;49.594;8.734;2022-08-05T14:32:43;2.80;;;2.60;;
34573;SDS011;20809;49.594;8.734;2022-08-05T14:35:43;3.13;;;2.38;;
34573;SDS011;20809;49.594;8.734;2022-08-05T14:38:44;2.70;;;2.50;;
34573;SDS011;20809;49.594;8.734;2022-08-05T14:41:45;2.45;;;2.35;;
34573;SDS011;20809;49.594;8.734;2022-08-05T14:44:45;2.63;;;2.42;;
34573;SDS011;20809;49.594;8.734;2022-08-05T14:47:46;2.63;;;2.40;;
34573;SDS011;20809;49.594;8.734;2022-08-05T14:50:47;2.55;;;2.45;;
34573;SDS011;20809;49.594;8.734;2022-08-05T14:53:48;2.38;;;2.28;;
34573;SDS011;20809;49.594;8.734;2022-08-05T14:56:49;2.67;;;2.17;;
34573;SDS011;20809;49.594;8.734;2022-08-05T14:59:50;2.97;;;2.60;;
34573;SDS011;20809;49.594;8.734;2022-08-05T15:02:50;3.15;;;2.85;;
34573;SDS011;20809;49.594;8.734;2022-08-05T15:05:51;3.42;;;2.65;;
34573;SDS011;20809;49.594;8.734;2022-08-05T15:08:52;2.42;;;2.30;;
34573;SDS011;20809;49.594;8.734;2022-08-05T15:11:55;3.65;;;2.65;;
34573;SDS011;20809;49.594;8.734;2022-08-05T15:14:56;2.97;;;2.78;;
34573;SDS011;20809;49.594;8.734;2022-08-05T15:17:57;3.35;;;3.08;;
34573;SDS011;20809;49.594;8.734;2022-08-05T15:20:58;3.00;;;2.65;;
34573;SDS011;20809;49.594;8.734;2022-08-05T15:26:59;6.00;;;2.87;;
34573;SDS011;20809;49.594;8.734;2022-08-05T15:33:03;3.73;;;3.37;;
34573;SDS011;20809;49.594;8.734;2022-08-05T15:36:05;3.80;;;3.50;;
34573;SDS011;20809;49.594;8.734;2022-08-05T15:42:06;3.77;;;3.30;;
34573;SDS011;20809;49.594;8.734;2022-08-05T15:45:08;4.40;;;3.75;;
34573;SDS011;20809;49.594;8.734;2022-08-05T15:48:11;4.38;;;3.60;;
34573;SDS011;20809;49.594;8.734;2022-08-05T15:51:13;4.45;;;4.15;;
34573;SDS011;20809;49.594;8.734;2022-08-05T15:57:14;4.63;;;4.23;;
34573;SDS011;20809;49.594;8.734;2022-08-05T16:03:17;5.82;;;5.32;;
34573;SDS011;20809;49.594;8.734;2022-08-05T16:06:17;8.32;;;5.53;;
34573;SDS011;20809;49.594;8.734;2022-08-05T16:09:18;6.43;;;5.90;;
34573;SDS011;20809;49.594;8.734;2022-08-05T16:12:19;7.90;;;6.85;;
34573;SDS011;20809;49.594;8.734;2022-08-05T16:15:20;7.47;;;6.78;;
34573;SDS011;20809;49.594;8.734;2022-08-05T16:18:21;8.38;;;7.47;;
34573;SDS011;20809;49.594;8.734;2022-08-05T16:21:21;9.18;;;7.30;;
34573;SDS011;20809;49.594;8.734;2022-08-05T16:24:22;9.45;;;8.52;;
34573;SDS011;20809;49.594;8.734;2022-08-05T16:27:23;9.02;;;8.18;;
34573;SDS011;20809;49.594;8.734;2022-08-05T16:30:24;8.77;;;7.90;;
34573;SDS011;20809;49.594;8.734;2022-08-05T16:33:25;8.90;;;8.00;;
34573;SDS011;20809;49.594;8.734;2022-08-05T16:36:27;7.75;;;7.05;;
34573;SDS011;20809;49.594;8.734;2022-08-05T16:39:28;5.60;;;5.10;;
34573;SDS011;20809;49.594;8.734;2022-08-05T16:45:30;7.20;;;6.50;;
34573;SDS011;20809;49.594;8.734;2022-08-05T16:48:31;10.02;;;7.32;;
34573;SDS011;20809;49.594;8.734;2022-08-05T16:51:31;9.20;;;7.15;;
34573;SDS011;20809;49.594;8.734;2022-08-05T16:54:32;7.82;;;6.63;;
34573;SDS011;20809;49.594;8.734;2022-08-05T16:57:33;8.98;;;6.88;;
34573;SDS011;20809;49.594;8.734;2022-08-05T17:00:33;7.05;;;6.30;;
34573;SDS011;20809;49.594;8.734;2022-08-05T17:03:34;6.85;;;6.22;;
34573;SDS011;20809;49.594;8.734;2022-08-05T17:06:35;6.35;;;5.75;;
34573;SDS011;20809;49.594;8.734;2022-08-05T17:09:36;6.95;;;6.30;;
34573;SDS011;20809;49.594;8.734;2022-08-05T17:12:37;7.97;;;6.45;;
34573;SDS011;20809;49.594;8.734;2022-08-05T17:15:37;6.65;;;6.05;;
34573;SDS011;20809;49.594;8.734;2022-08-05T17:18:38;7.60;;;6.68;;
34573;SDS011;20809;49.594;8.734;2022-08-05T17:21:39;8.13;;;7.32;;
34573;SDS011;20809;49.594;8.734;2022-08-05T17:24:40;8.98;;;7.40;;
34573;SDS011;20809;49.594;8.734;2022-08-05T17:30:42;7.63;;;6.83;;
34573;SDS011;20809;49.594;8.734;2022-08-05T17:36:43;8.60;;;7.27;;
34573;SDS011;20809;49.594;8.734;2022-08-05T17:39:44;7.68;;;6.55;;
34573;SDS011;20809;49.594;8.734;2022-08-05T17:45:46;8.82;;;6.95;;
34573;SDS011;20809;49.594;8.734;2022-08-05T17:48:47;7.43;;;6.65;;
34573;SDS011;20809;49.594;8.734;2022-08-05T17:51:48;7.28;;;5.95;;
34573;SDS011;20809;49.594;8.734;2022-08-05T17:54:49;8.57;;;6.63;;
34573;SDS011;20809;49.594;8.734;2022-08-05T17:57:49;6.30;;;5.40;;
34573;SDS011;20809;49.594;8.734;2022-08-05T18:00:50;6.93;;;5.40;;
34573;SDS011;20809;49.594;8.734;2022-08-05T18:03:51;6.75;;;5.13;;
34573;SDS011;20809;49.594;8.734;2022-08-05T18:06:52;4.68;;;4.28;;
34573;SDS011;20809;49.594;8.734;2022-08-05T18:09:52;4.72;;;4.32;;
34573;SDS011;20809;49.594;8.734;2022-08-05T18:12:53;5.47;;;4.40;;
34573;SDS011;20809;49.594;8.734;2022-08-05T18:15:54;5.25;;;4.78;;
34573;SDS011;20809;49.594;8.734;2022-08-05T18:21:56;4.97;;;4.33;;
34573;SDS011;20809;49.594;8.734;2022-08-05T18:24:57;4.15;;;3.20;;
34573;SDS011;20809;49.594;8.734;2022-08-05T18:27:58;3.63;;;3.20;;
34573;SDS011;20809;49.594;8.734;2022-08-05T18:34:00;3.67;;;2.70;;
34573;SDS011;20809;49.594;8.734;2022-08-05T18:37:01;3.00;;;2.70;;
34573;SDS011;20809;49.594;8.734;2022-08-05T18:40:02;2.28;;;2.08;;
34573;SDS011;20809;49.594;8.734;2022-08-05T18:43:04;3.88;;;2.88;;
34573;SDS011;20809;49.594;8.734;2022-08-05T18:46:05;2.58;;;2.15;;
34573;SDS011;20809;49.594;8.734;2022-08-05T18:49:06;2.47;;;2.00;;
34573;SDS011;20809;49.594;8.734;2022-08-05T18:52:25;1.90;;;1.80;;
34573;SDS011;20809;49.594;8.734;2022-08-05T18:55:32;1.45;;;1.35;;
34573;SDS011;20809;49.594;8.734;2022-08-05T18:58:32;1.77;;;1.40;;
34573;SDS011;20809;49.594;8.734;2022-08-05T19:01:33;1.55;;;1.10;;
34573;SDS011;20809;49.594;8.734;2022-08-05T19:04:34;1.42;;;1.33;;
34573;SDS011;20809;49.594;8.734;2022-08-05T19:07:34;1.30;;;1.17;;
34573;SDS011;20809;49.594;8.734;2022-08-05T19:10:35;1.25;;;1.15;;
34573;SDS011;20809;49.594;8.734;2022-08-05T19:13:36;1.40;;;1.30;;
34573;SDS011;20809;49.594;8.734;2022-08-05T19:16:37;1.33;;;1.23;;
34573;SDS011;20809;49.594;8.734;2022-08-05T19:19:41;3.17;;;1.40;;
34573;SDS011;20809;49.594;8.734;2022-08-05T19:22:43;2.17;;;1.25;;
34573;SDS011;20809;49.594;8.734;2022-08-05T19:25:43;1.80;;;1.23;;
34573;SDS011;20809;49.594;8.734;2022-08-05T19:28:44;2.05;;;1.40;;
34573;SDS011;20809;49.594;8.734;2022-08-05T19:31:45;1.13;;;0.85;;
34573;SDS011;20809;49.594;8.734;2022-08-05T19:34:46;1.77;;;1.10;;
34573;SDS011;20809;49.594;8.734;2022-08-05T19:37:47;3.22;;;1.00;;
34573;SDS011;20809;49.594;8.734;2022-08-05T19:40:48;1.08;;;0.98;;
34573;SDS011;20809;49.594;8.734;2022-08-05T19:43:49;3.63;;;1.00;;
34573;SDS011;20809;49.594;8.734;2022-08-05T19:46:49;1.30;;;1.00;;
34573;SDS011;20809;49.594;8.734;2022-08-05T19:52:51;1.47;;;1.03;;
34573;SDS011;20809;49.594;8.734;2022-08-05T19:55:52;3.22;;;0.90;;
34573;SDS011;20809;49.594;8.734;2022-08-05T19:58:55;1.67;;;1.13;;